sensor_id;sensor_type;location;lat;lon;timestamp;pressure;altitude;pressure_sealevel;temperature;humidity
61039;BME280;46919;45.816;3.104;2023-06-14T00:00:31;97149.50;;;18.64;97.21
61039;BME280;46919;45.816;3.104;2023-06-14T00:02:56;97153.81;;;18.51;97.45
61039;BME280;46919;45.816;3.104;2023-06-14T00:05:22;97145.72;;;18.41;97.68
61039;BME280;46919;45.816;3.104;2023-06-14T00:07:48;97143.72;;;18.27;97.93
61039;BME280;46919;45.816;3.104;2023-06-14T00:10:14;97145.97;;;18.20;97.18
61039;BME280;46919;45.816;3.104;2023-06-14T00:12:40;97153.19;;;18.11;97.48
61039;BME280;46919;45.816;3.104;2023-06-14T00:15:07;97147.28;;;18.04;98.08
61039;BME280;46919;45.816;3.104;2023-06-14T00:17:32;97153.41;;;17.96;98.31
61039;BME280;46919;45.816;3.104;2023-06-14T00:19:59;97153.16;;;17.87;98.48
61039;BME280;46919;45.816;3.104;2023-06-14T00:22:25;97159.50;;;17.82;98.92
61039;BME280;46919;45.816;3.104;2023-06-14T00:24:51;97160.66;;;17.76;99.08
61039;BME280;46919;45.816;3.104;2023-06-14T00:27:17;97159.97;;;17.65;99.81
61039;BME280;46919;45.816;3.104;2023-06-14T00:29:43;97158.91;;;17.61;100.00
61039;BME280;46919;45.816;3.104;2023-06-14T00:32:08;97163.66;;;17.50;100.00
61039;BME280;46919;45.816;3.104;2023-06-14T00:34:34;97168.66;;;17.38;100.00
61039;BME280;46919;45.816;3.104;2023-06-14T00:37:00;97160.81;;;17.31;100.00
61039;BME280;46919;45.816;3.104;2023-06-14T00:39:25;97163.59;;;17.26;100.00
61039;BME280;46919;45.816;3.104;2023-06-14T00:41:51;97162.00;;;17.20;100.00
61039;BME280;46919;45.816;3.104;2023-06-14T00:44:17;97161.81;;;17.11;100.00
61039;BME280;46919;45.816;3.104;2023-06-14T00:46:44;97162.66;;;17.07;100.00
61039;BME280;46919;45.816;3.104;2023-06-14T00:49:11;97172.78;;;17.01;100.00
61039;BME280;46919;45.816;3.104;2023-06-14T00:51:37;97172.84;;;16.96;100.00
61039;BME280;46919;45.816;3.104;2023-06-14T00:54:03;97170.69;;;16.93;100.00
61039;BME280;46919;45.816;3.104;2023-06-14T00:56:28;97174.00;;;16.79;100.00
61039;BME280;46919;45.816;3.104;2023-06-14T00:58:56;97166.97;;;16.73;100.00
61039;BME280;46919;45.816;3.104;2023-06-14T01:01:21;97170.78;;;16.72;100.00
61039;BME280;46919;45.816;3.104;2023-06-14T01:03:47;97176.47;;;16.76;100.00
61039;BME280;46919;45.816;3.104;2023-06-14T01:06:23;97172.09;;;16.75;100.00
61039;BME280;46919;45.816;3.104;2023-06-14T01:09:18;97165.34;;;16.67;100.00
61039;BME280;46919;45.816;3.104;2023-06-14T01:12:25;97165.13;;;16.58;100.00
61039;BME280;46919;45.816;3.104;2023-06-14T01:14:53;97165.44;;;16.52;100.00
61039;BME280;46919;45.816;3.104;2023-06-14T01:17:19;97169.00;;;16.47;100.00
61039;BME280;46919;45.816;3.104;2023-06-14T01:19:46;97163.31;;;16.43;100.00
61039;BME280;46919;45.816;3.104;2023-06-14T01:22:11;97158.97;;;16.37;100.00
61039;BME280;46919;45.816;3.104;2023-06-14T01:24:37;97158.19;;;16.26;100.00
61039;BME280;46919;45.816;3.104;2023-06-14T01:27:05;97163.13;;;16.19;100.00
61039;BME280;46919;45.816;3.104;2023-06-14T01:29:30;97161.25;;;16.15;100.00
61039;BME280;46919;45.816;3.104;2023-06-14T01:32:01;97154.16;;;16.14;100.00
61039;BME280;46919;45.816;3.104;2023-06-14T01:34:27;97156.91;;;16.08;100.00
61039;BME280;46919;45.816;3.104;2023-06-14T01:36:53;97148.72;;;16.03;100.00
61039;BME280;46919;45.816;3.104;2023-06-14T01:39:22;97152.28;;;15.99;100.00
61039;BME280;46919;45.816;3.104;2023-06-14T01:41:49;97153.16;;;15.94;100.00
61039;BME280;46919;45.816;3.104;2023-06-14T01:44:16;97158.06;;;15.87;100.00
61039;BME280;46919;45.816;3.104;2023-06-14T01:46:43;97152.09;;;15.85;100.00
61039;BME280;46919;45.816;3.104;2023-06-14T01:49:08;97154.00;;;15.79;100.00
61039;BME280;46919;45.816;3.104;2023-06-14T01:51:34;97150.47;;;15.73;100.00
61039;BME280;46919;45.816;3.104;2023-06-14T01:54:00;97157.00;;;15.67;100.00
61039;BME280;46919;45.816;3.104;2023-06-14T01:56:26;97154.00;;;15.64;100.00
61039;BME280;46919;45.816;3.104;2023-06-14T01:58:52;97157.00;;;15.62;100.00
61039;BME280;46919;45.816;3.104;2023-06-14T02:01:19;97166.56;;;15.54;100.00
61039;BME280;46919;45.816;3.104;2023-06-14T02:03:46;97167.13;;;15.51;100.00
61039;BME280;46919;45.816;3.104;2023-06-14T02:06:12;97162.75;;;15.45;100.00
61039;BME280;46919;45.816;3.104;2023-06-14T02:08:39;97159.22;;;15.34;100.00
61039;BME280;46919;45.816;3.104;2023-06-14T02:11:05;97163.56;;;15.30;100.00
61039;BME280;46919;45.816;3.104;2023-06-14T02:13:30;97177.19;;;15.25;100.00
61039;BME280;46919;45.816;3.104;2023-06-14T02:15:56;97179.13;;;15.19;100.00
61039;BME280;46919;45.816;3.104;2023-06-14T02:18:23;97170.66;;;15.16;100.00
61039;BME280;46919;45.816;3.104;2023-06-14T02:20:48;97175.28;;;15.20;100.00
61039;BME280;46919;45.816;3.104;2023-06-14T02:23:13;97183.72;;;15.19;100.00
61039;BME280;46919;45.816;3.104;2023-06-14T02:25:39;97178.81;;;15.16;100.00
61039;BME280;46919;45.816;3.104;2023-06-14T02:28:05;97189.16;;;15.14;100.00
61039;BME280;46919;45.816;3.104;2023-06-14T02:30:31;97180.44;;;15.07;100.00
61039;BME280;46919;45.816;3.104;2023-06-14T02:32:56;97186.44;;;14.98;100.00
61039;BME280;46919;45.816;3.104;2023-06-14T02:35:22;97191.34;;;14.96;100.00
61039;BME280;46919;45.816;3.104;2023-06-14T02:37:51;97189.16;;;14.98;100.00
61039;BME280;46919;45.816;3.104;2023-06-14T02:40:18;97192.97;;;14.97;100.00
61039;BME280;46919;45.816;3.104;2023-06-14T02:42:43;97191.88;;;14.93;100.00
61039;BME280;46919;45.816;3.104;2023-06-14T02:45:09;97188.59;;;15.01;100.00
61039;BME280;46919;45.816;3.104;2023-06-14T02:47:34;97200.59;;;15.06;100.00
61039;BME280;46919;45.816;3.104;2023-06-14T02:50:00;97197.88;;;15.00;100.00
61039;BME280;46919;45.816;3.104;2023-06-14T02:52:25;97196.78;;;15.07;100.00
61039;BME280;46919;45.816;3.104;2023-06-14T02:54:51;97198.97;;;15.20;100.00
61039;BME280;46919;45.816;3.104;2023-06-14T02:57:17;97203.59;;;15.04;100.00
61039;BME280;46919;45.816;3.104;2023-06-14T02:59:42;97200.84;;;14.89;100.00
61039;BME280;46919;45.816;3.104;2023-06-14T03:02:08;97200.56;;;14.90;100.00
61039;BME280;46919;45.816;3.104;2023-06-14T03:04:33;97200.84;;;14.89;100.00
61039;BME280;46919;45.816;3.104;2023-06-14T03:07:02;97203.81;;;14.77;100.00
61039;BME280;46919;45.816;3.104;2023-06-14T03:09:36;97198.88;;;14.63;100.00
61039;BME280;46919;45.816;3.104;2023-06-14T03:12:03;97202.38;;;14.59;100.00
61039;BME280;46919;45.816;3.104;2023-06-14T03:14:29;97214.63;;;14.56;100.00
61039;BME280;46919;45.816;3.104;2023-06-14T03:16:56;97214.66;;;14.66;100.00
61039;BME280;46919;45.816;3.104;2023-06-14T03:19:22;97216.84;;;14.64;100.00
61039;BME280;46919;45.816;3.104;2023-06-14T03:21:48;97217.06;;;14.58;100.00
61039;BME280;46919;45.816;3.104;2023-06-14T03:24:16;97215.69;;;14.55;100.00
61039;BME280;46919;45.816;3.104;2023-06-14T03:26:42;97217.88;;;14.53;100.00
61039;BME280;46919;45.816;3.104;2023-06-14T03:29:08;97220.00;;;14.51;100.00
61039;BME280;46919;45.816;3.104;2023-06-14T03:31:34;97213.50;;;14.47;100.00
61039;BME280;46919;45.816;3.104;2023-06-14T03:34:00;97222.72;;;14.46;100.00
61039;BME280;46919;45.816;3.104;2023-06-14T03:36:26;97215.94;;;14.54;100.00
61039;BME280;46919;45.816;3.104;2023-06-14T03:38:51;97218.94;;;14.47;100.00
61039;BME280;46919;45.816;3.104;2023-06-14T03:41:17;97218.41;;;14.50;100.00
61039;BME280;46919;45.816;3.104;2023-06-14T03:43:42;97222.78;;;14.56;100.00
61039;BME280;46919;45.816;3.104;2023-06-14T03:46:07;97216.19;;;14.42;100.00
61039;BME280;46919;45.816;3.104;2023-06-14T03:48:33;97222.13;;;14.34;100.00
61039;BME280;46919;45.816;3.104;2023-06-14T03:50:58;97229.19;;;14.29;100.00
61039;BME280;46919;45.816;3.104;2023-06-14T03:53:23;97218.34;;;14.40;100.00
61039;BME280;46919;45.816;3.104;2023-06-14T03:55:49;97224.91;;;14.54;100.00
61039;BME280;46919;45.816;3.104;2023-06-14T03:58:17;97227.63;;;14.44;100.00
61039;BME280;46919;45.816;3.104;2023-06-14T04:00:43;97236.56;;;14.34;100.00
61039;BME280;46919;45.816;3.104;2023-06-14T04:03:08;97221.03;;;14.29;100.00
61039;BME280;46919;45.816;3.104;2023-06-14T04:05:33;97234.63;;;14.29;100.00
61039;BME280;46919;45.816;3.104;2023-06-14T04:07:59;97236.50;;;14.24;100.00
61039;BME280;46919;45.816;3.104;2023-06-14T04:10:26;97234.00;;;14.17;100.00
61039;BME280;46919;45.816;3.104;2023-06-14T04:12:51;97231.84;;;14.19;100.00
61039;BME280;46919;45.816;3.104;2023-06-14T04:15:17;97232.41;;;14.21;100.00
61039;BME280;46919;45.816;3.104;2023-06-14T04:17:42;97232.69;;;14.25;100.00
61039;BME280;46919;45.816;3.104;2023-06-14T04:20:07;97236.56;;;14.39;100.00
61039;BME280;46919;45.816;3.104;2023-06-14T04:22:35;97241.16;;;14.34;100.00
61039;BME280;46919;45.816;3.104;2023-06-14T04:25:02;97246.03;;;14.26;100.00
61039;BME280;46919;45.816;3.104;2023-06-14T04:27:27;97247.66;;;14.27;100.00
61039;BME280;46919;45.816;3.104;2023-06-14T04:29:56;97250.66;;;14.26;100.00
61039;BME280;46919;45.816;3.104;2023-06-14T04:32:28;97243.91;;;14.39;100.00
61039;BME280;46919;45.816;3.104;2023-06-14T04:34:55;97245.59;;;14.55;100.00
61039;BME280;46919;45.816;3.104;2023-06-14T04:37:21;97259.19;;;14.50;100.00
61039;BME280;46919;45.816;3.104;2023-06-14T04:39:48;97261.34;;;14.48;100.00
61039;BME280;46919;45.816;3.104;2023-06-14T04:42:13;97254.28;;;14.57;100.00
61039;BME280;46919;45.816;3.104;2023-06-14T04:44:41;97254.94;;;14.70;100.00
61039;BME280;46919;45.816;3.104;2023-06-14T04:47:06;97268.03;;;14.83;100.00
61039;BME280;46919;45.816;3.104;2023-06-14T04:49:32;97267.50;;;14.96;100.00
61039;BME280;46919;45.816;3.104;2023-06-14T04:51:59;97272.41;;;14.94;100.00
61039;BME280;46919;45.816;3.104;2023-06-14T04:54:27;97274.28;;;14.89;100.00
61039;BME280;46919;45.816;3.104;2023-06-14T04:56:53;97269.97;;;15.03;100.00
61039;BME280;46919;45.816;3.104;2023-06-14T04:59:21;97278.44;;;15.12;100.00
61039;BME280;46919;45.816;3.104;2023-06-14T05:01:49;97274.34;;;14.99;100.00
61039;BME280;46919;45.816;3.104;2023-06-14T05:04:17;97284.38;;;14.98;100.00
61039;BME280;46919;45.816;3.104;2023-06-14T05:06:43;97283.31;;;15.10;100.00
61039;BME280;46919;45.816;3.104;2023-06-14T05:09:10;97276.56;;;15.23;100.00
61039;BME280;46919;45.816;3.104;2023-06-14T05:11:36;97284.44;;;15.24;100.00
61039;BME280;46919;45.816;3.104;2023-06-14T05:14:01;97286.34;;;15.29;100.00
61039;BME280;46919;45.816;3.104;2023-06-14T05:16:27;97288.84;;;15.35;100.00
61039;BME280;46919;45.816;3.104;2023-06-14T05:18:52;97286.63;;;15.43;100.00
61039;BME280;46919;45.816;3.104;2023-06-14T05:21:18;97291.28;;;15.52;100.00
61039;BME280;46919;45.816;3.104;2023-06-14T05:23:46;97299.72;;;15.51;100.00
61039;BME280;46919;45.816;3.104;2023-06-14T05:26:12;97301.63;;;15.55;100.00
61039;BME280;46919;45.816;3.104;2023-06-14T05:28:37;97296.75;;;15.63;100.00
61039;BME280;46919;45.816;3.104;2023-06-14T05:31:03;97301.13;;;15.79;100.00
61039;BME280;46919;45.816;3.104;2023-06-14T05:33:28;97299.22;;;15.85;100.00
61039;BME280;46919;45.816;3.104;2023-06-14T05:35:54;97302.22;;;15.78;100.00
61039;BME280;46919;45.816;3.104;2023-06-14T05:38:20;97303.56;;;15.81;100.00
61039;BME280;46919;45.816;3.104;2023-06-14T05:40:45;97300.03;;;15.85;100.00
61039;BME280;46919;45.816;3.104;2023-06-14T05:43:11;97294.28;;;15.92;100.00
61039;BME280;46919;45.816;3.104;2023-06-14T05:45:36;97304.66;;;16.05;100.00
61039;BME280;46919;45.816;3.104;2023-06-14T05:48:01;97298.66;;;16.08;100.00
61039;BME280;46919;45.816;3.104;2023-06-14T05:50:27;97301.91;;;16.10;100.00
61039;BME280;46919;45.816;3.104;2023-06-14T05:52:53;97309.28;;;16.10;100.00
61039;BME280;46919;45.816;3.104;2023-06-14T05:55:18;97299.44;;;16.19;100.00
61039;BME280;46919;45.816;3.104;2023-06-14T05:57:44;97308.69;;;16.28;100.00
61039;BME280;46919;45.816;3.104;2023-06-14T06:00:09;97307.59;;;16.35;100.00
61039;BME280;46919;45.816;3.104;2023-06-14T06:02:43;97313.84;;;16.40;100.00
61039;BME280;46919;45.816;3.104;2023-06-14T06:05:12;97314.38;;;16.42;100.00
61039;BME280;46919;45.816;3.104;2023-06-14T06:07:38;97306.47;;;16.51;100.00
61039;BME280;46919;45.816;3.104;2023-06-14T06:10:05;97308.34;;;16.61;100.00
61039;BME280;46919;45.816;3.104;2023-06-14T06:12:31;97306.16;;;16.63;100.00
61039;BME280;46919;45.816;3.104;2023-06-14T06:14:58;97305.31;;;16.67;100.00
61039;BME280;46919;45.816;3.104;2023-06-14T06:17:24;97308.84;;;16.73;100.00
61039;BME280;46919;45.816;3.104;2023-06-14T06:19:50;97312.34;;;16.79;100.00
61039;BME280;46919;45.816;3.104;2023-06-14T06:22:15;97310.16;;;16.91;100.00
61039;BME280;46919;45.816;3.104;2023-06-14T06:24:42;97311.50;;;16.99;100.00
61039;BME280;46919;45.816;3.104;2023-06-14T06:27:07;97314.19;;;17.04;100.00
61039;BME280;46919;45.816;3.104;2023-06-14T06:29:33;97318.53;;;17.10;100.00
61039;BME280;46919;45.816;3.104;2023-06-14T06:31:59;97318.50;;;17.15;100.00
61039;BME280;46919;45.816;3.104;2023-06-14T06:34:24;97317.13;;;17.18;100.00
61039;BME280;46919;45.816;3.104;2023-06-14T06:36:50;97315.44;;;17.22;100.00
61039;BME280;46919;45.816;3.104;2023-06-14T06:39:15;97323.34;;;17.29;100.00
61039;BME280;46919;45.816;3.104;2023-06-14T06:41:41;97322.19;;;17.35;100.00
61039;BME280;46919;45.816;3.104;2023-06-14T06:44:07;97319.72;;;17.38;100.00
61039;BME280;46919;45.816;3.104;2023-06-14T06:46:33;97328.97;;;17.43;100.00
61039;BME280;46919;45.816;3.104;2023-06-14T06:49:00;97325.13;;;17.49;100.00
61039;BME280;46919;45.816;3.104;2023-06-14T06:51:25;97316.59;;;17.55;100.00
61039;BME280;46919;45.816;3.104;2023-06-14T06:53:54;97327.78;;;17.59;100.00
61039;BME280;46919;45.816;3.104;2023-06-14T06:56:21;97326.66;;;17.60;100.00
61039;BME280;46919;45.816;3.104;2023-06-14T06:58:51;97327.75;;;17.64;100.00
61039;BME280;46919;45.816;3.104;2023-06-14T07:01:17;97324.97;;;17.69;100.00
61039;BME280;46919;45.816;3.104;2023-06-14T07:03:42;97334.44;;;17.82;100.00
61039;BME280;46919;45.816;3.104;2023-06-14T07:06:08;97330.31;;;17.85;100.00
61039;BME280;46919;45.816;3.104;2023-06-14T07:08:33;97336.56;;;17.96;100.00
61039;BME280;46919;45.816;3.104;2023-06-14T07:10:59;97335.44;;;17.97;100.00
61039;BME280;46919;45.816;3.104;2023-06-14T07:13:25;97344.66;;;18.06;100.00
61039;BME280;46919;45.816;3.104;2023-06-14T07:15:53;97342.72;;;18.12;100.00
61039;BME280;46919;45.816;3.104;2023-06-14T07:18:20;97350.22;;;18.25;100.00
61039;BME280;46919;45.816;3.104;2023-06-14T07:20:46;97352.63;;;18.32;100.00
61039;BME280;46919;45.816;3.104;2023-06-14T07:23:12;97363.84;;;18.35;100.00
61039;BME280;46919;45.816;3.104;2023-06-14T07:25:37;97360.25;;;18.35;100.00
61039;BME280;46919;45.816;3.104;2023-06-14T07:28:03;97360.75;;;18.42;100.00
61039;BME280;46919;45.816;3.104;2023-06-14T07:30:28;97359.53;;;18.53;100.00
61039;BME280;46919;45.816;3.104;2023-06-14T07:32:55;97360.47;;;18.68;100.00
61039;BME280;46919;45.816;3.104;2023-06-14T07:35:21;97358.50;;;18.73;100.00
61039;BME280;46919;45.816;3.104;2023-06-14T07:37:46;97358.69;;;18.82;99.31
61039;BME280;46919;45.816;3.104;2023-06-14T07:40:13;97360.28;;;18.88;99.27
61039;BME280;46919;45.816;3.104;2023-06-14T07:42:38;97368.19;;;18.90;99.77
61039;BME280;46919;45.816;3.104;2023-06-14T07:45:05;97370.00;;;18.99;97.61
61039;BME280;46919;45.816;3.104;2023-06-14T07:47:31;97362.25;;;19.07;95.82
61039;BME280;46919;45.816;3.104;2023-06-14T07:49:56;97363.28;;;19.11;95.77
61039;BME280;46919;45.816;3.104;2023-06-14T07:52:21;97371.31;;;19.26;94.19
61039;BME280;46919;45.816;3.104;2023-06-14T07:54:47;97372.28;;;19.35;95.12
61039;BME280;46919;45.816;3.104;2023-06-14T07:57:12;97368.59;;;19.45;93.41
61039;BME280;46919;45.816;3.104;2023-06-14T07:59:38;97366.03;;;19.54;93.17
61039;BME280;46919;45.816;3.104;2023-06-14T08:02:04;97364.81;;;19.60;94.36
61039;BME280;46919;45.816;3.104;2023-06-14T08:04:29;97373.78;;;19.66;93.60
61039;BME280;46919;45.816;3.104;2023-06-14T08:06:56;97374.25;;;19.73;92.56
61039;BME280;46919;45.816;3.104;2023-06-14T08:09:21;97381.44;;;19.88;91.62
61039;BME280;46919;45.816;3.104;2023-06-14T08:11:47;97377.03;;;20.06;90.77
61039;BME280;46919;45.816;3.104;2023-06-14T08:14:12;97373.59;;;20.14;90.06
61039;BME280;46919;45.816;3.104;2023-06-14T08:16:38;97374.22;;;20.11;89.68
61039;BME280;46919;45.816;3.104;2023-06-14T08:19:03;97372.59;;;20.10;90.32
61039;BME280;46919;45.816;3.104;2023-06-14T08:21:28;97380.88;;;20.24;90.35
61039;BME280;46919;45.816;3.104;2023-06-14T08:23:55;97381.28;;;20.31;89.20
61039;BME280;46919;45.816;3.104;2023-06-14T08:26:21;97377.94;;;20.34;89.22
61039;BME280;46919;45.816;3.104;2023-06-14T08:28:47;97387.72;;;20.40;89.38
61039;BME280;46919;45.816;3.104;2023-06-14T08:31:12;97383.66;;;20.52;89.12
61039;BME280;46919;45.816;3.104;2023-06-14T08:33:38;97389.78;;;20.62;89.24
61039;BME280;46919;45.816;3.104;2023-06-14T08:36:04;97392.38;;;20.73;89.06
61039;BME280;46919;45.816;3.104;2023-06-14T08:38:30;97390.47;;;20.73;88.06
61039;BME280;46919;45.816;3.104;2023-06-14T08:40:57;97394.22;;;20.77;87.11
61039;BME280;46919;45.816;3.104;2023-06-14T08:43:23;97394.03;;;20.88;87.09
61039;BME280;46919;45.816;3.104;2023-06-14T08:45:49;97392.09;;;21.02;85.23
61039;BME280;46919;45.816;3.104;2023-06-14T08:48:18;97399.13;;;21.08;84.26
61039;BME280;46919;45.816;3.104;2023-06-14T08:50:46;97401.56;;;21.10;84.48
61039;BME280;46919;45.816;3.104;2023-06-14T08:53:14;97407.47;;;21.03;84.26
61039;BME280;46919;45.816;3.104;2023-06-14T08:55:41;97404.19;;;21.15;84.64
61039;BME280;46919;45.816;3.104;2023-06-14T08:58:08;97404.41;;;21.32;84.86
61039;BME280;46919;45.816;3.104;2023-06-14T09:00:34;97401.03;;;21.35;83.08
61039;BME280;46919;45.816;3.104;2023-06-14T09:03:03;97400.00;;;21.31;83.08
61039;BME280;46919;45.816;3.104;2023-06-14T09:05:28;97411.22;;;21.49;82.08
61039;BME280;46919;45.816;3.104;2023-06-14T09:07:54;97405.06;;;21.66;80.06
61039;BME280;46919;45.816;3.104;2023-06-14T09:10:21;97403.72;;;21.77;79.37
61039;BME280;46919;45.816;3.104;2023-06-14T09:12:46;97403.84;;;21.72;78.71
61039;BME280;46919;45.816;3.104;2023-06-14T09:15:12;97400.50;;;21.61;78.82
61039;BME280;46919;45.816;3.104;2023-06-14T09:17:40;97397.09;;;21.78;78.70
61039;BME280;46919;45.816;3.104;2023-06-14T09:20:07;97402.13;;;21.99;79.12
61039;BME280;46919;45.816;3.104;2023-06-14T09:22:39;97400.50;;;22.20;76.44
61039;BME280;46919;45.816;3.104;2023-06-14T09:25:05;97392.03;;;22.31;74.59
61039;BME280;46919;45.816;3.104;2023-06-14T09:27:33;97399.34;;;22.35;74.94
61039;BME280;46919;45.816;3.104;2023-06-14T09:29:58;97402.78;;;22.41;73.78
61039;BME280;46919;45.816;3.104;2023-06-14T09:32:24;97405.28;;;22.51;76.19
61039;BME280;46919;45.816;3.104;2023-06-14T09:34:50;97405.16;;;22.56;72.64
61039;BME280;46919;45.816;3.104;2023-06-14T09:37:30;97403.78;;;22.45;73.20
61039;BME280;46919;45.816;3.104;2023-06-14T09:39:56;97415.47;;;22.73;74.72
61039;BME280;46919;45.816;3.104;2023-06-14T09:42:22;97410.03;;;22.91;71.78
61039;BME280;46919;45.816;3.104;2023-06-14T09:44:51;97401.34;;;23.06;71.04
61039;BME280;46919;45.816;3.104;2023-06-14T09:47:17;97411.78;;;23.18;72.27
61039;BME280;46919;45.816;3.104;2023-06-14T09:49:42;97413.28;;;23.24;71.92
61039;BME280;46919;45.816;3.104;2023-06-14T09:52:13;97411.50;;;23.28;68.85
61039;BME280;46919;45.816;3.104;2023-06-14T09:54:44;97411.19;;;23.30;67.88
61039;BME280;46919;45.816;3.104;2023-06-14T09:57:12;97407.66;;;23.47;67.13
61039;BME280;46919;45.816;3.104;2023-06-14T09:59:41;97403.13;;;23.51;64.66
61039;BME280;46919;45.816;3.104;2023-06-14T10:02:11;97403.59;;;23.53;64.71
61039;BME280;46919;45.816;3.104;2023-06-14T10:04:49;97407.53;;;23.69;65.45
61039;BME280;46919;45.816;3.104;2023-06-14T10:07:19;97416.47;;;23.75;67.44
61039;BME280;46919;45.816;3.104;2023-06-14T10:09:46;97398.44;;;23.69;63.58
61039;BME280;46919;45.816;3.104;2023-06-14T10:12:17;97401.34;;;23.73;61.84
61039;BME280;46919;45.816;3.104;2023-06-14T10:14:51;97407.41;;;23.92;61.90
61039;BME280;46919;45.816;3.104;2023-06-14T10:17:27;97401.09;;;24.00;58.49
61039;BME280;46919;45.816;3.104;2023-06-14T10:20:23;97398.47;;;24.04;56.80
61039;BME280;46919;45.816;3.104;2023-06-14T10:22:58;97400.09;;;24.14;57.96
61039;BME280;46919;45.816;3.104;2023-06-14T10:25:31;97394.75;;;24.17;58.33
61039;BME280;46919;45.816;3.104;2023-06-14T10:28:23;97398.97;;;24.23;59.60
61039;BME280;46919;45.816;3.104;2023-06-14T10:31:05;97382.56;;;24.18;53.67
61039;BME280;46919;45.816;3.104;2023-06-14T10:33:35;97399.28;;;24.13;58.05
61039;BME280;46919;45.816;3.104;2023-06-14T10:36:26;97394.56;;;24.31;57.14
61039;BME280;46919;45.816;3.104;2023-06-14T10:41:26;97379.59;;;24.50;52.84
61039;BME280;46919;45.816;3.104;2023-06-14T10:43:53;97388.22;;;24.57;55.95
61039;BME280;46919;45.816;3.104;2023-06-14T10:46:35;97380.69;;;24.66;53.51
61039;BME280;46919;45.816;3.104;2023-06-14T10:49:00;97384.09;;;24.72;54.15
61039;BME280;46919;45.816;3.104;2023-06-14T10:51:29;97382.31;;;24.76;53.17
61039;BME280;46919;45.816;3.104;2023-06-14T10:53:56;97383.78;;;24.73;52.94
61039;BME280;46919;45.816;3.104;2023-06-14T10:56:30;97385.84;;;24.85;53.05
61039;BME280;46919;45.816;3.104;2023-06-14T10:58:57;97371.69;;;24.87;52.42
61039;BME280;46919;45.816;3.104;2023-06-14T11:01:34;97372.28;;;25.01;51.15
61039;BME280;46919;45.816;3.104;2023-06-14T11:04:07;97381.88;;;25.04;51.31
61039;BME280;46919;45.816;3.104;2023-06-14T11:06:53;97379.16;;;24.95;49.33
61039;BME280;46919;45.816;3.104;2023-06-14T11:10:05;97386.44;;;25.00;52.81
61039;BME280;46919;45.816;3.104;2023-06-14T11:12:33;97390.72;;;25.27;52.85
61039;BME280;46919;45.816;3.104;2023-06-14T11:15:01;97380.38;;;25.45;51.92
61039;BME280;46919;45.816;3.104;2023-06-14T11:17:26;97376.13;;;25.47;51.28
61039;BME280;46919;45.816;3.104;2023-06-14T11:20:10;97381.81;;;25.51;51.23
61039;BME280;46919;45.816;3.104;2023-06-14T11:22:41;97375.88;;;25.61;49.77
61039;BME280;46919;45.816;3.104;2023-06-14T11:25:09;97367.72;;;25.65;49.11
61039;BME280;46919;45.816;3.104;2023-06-14T11:27:34;97368.38;;;25.62;48.85
61039;BME280;46919;45.816;3.104;2023-06-14T11:30:00;97374.84;;;25.66;49.82
61039;BME280;46919;45.816;3.104;2023-06-14T11:32:25;97370.69;;;25.81;49.61
61039;BME280;46919;45.816;3.104;2023-06-14T11:34:51;97364.06;;;25.94;48.21
61039;BME280;46919;45.816;3.104;2023-06-14T11:37:17;97366.38;;;26.13;48.12
61039;BME280;46919;45.816;3.104;2023-06-14T11:39:45;97360.41;;;26.24;46.19
61039;BME280;46919;45.816;3.104;2023-06-14T11:42:15;97354.88;;;26.24;43.57
61039;BME280;46919;45.816;3.104;2023-06-14T11:44:40;97350.91;;;26.12;44.83
61039;BME280;46919;45.816;3.104;2023-06-14T11:47:06;97354.38;;;26.21;45.69
61039;BME280;46919;45.816;3.104;2023-06-14T11:49:36;97364.03;;;26.36;45.66
61039;BME280;46919;45.816;3.104;2023-06-14T11:52:01;97360.13;;;26.50;45.43
61039;BME280;46919;45.816;3.104;2023-06-14T11:54:27;97354.28;;;26.64;45.62
61039;BME280;46919;45.816;3.104;2023-06-14T11:56:52;97363.72;;;26.84;45.50
61039;BME280;46919;45.816;3.104;2023-06-14T11:59:18;97350.75;;;26.75;42.78
61039;BME280;46919;45.816;3.104;2023-06-14T12:01:45;97355.72;;;26.70;45.32
61039;BME280;46919;45.816;3.104;2023-06-14T12:04:10;97352.13;;;26.82;43.92
61039;BME280;46919;45.816;3.104;2023-06-14T12:06:36;97355.97;;;27.02;43.94
61039;BME280;46919;45.816;3.104;2023-06-14T12:09:06;97358.16;;;27.21;42.38
61039;BME280;46919;45.816;3.104;2023-06-14T12:11:36;97363.56;;;27.29;43.25
61039;BME280;46919;45.816;3.104;2023-06-14T12:14:05;97352.03;;;27.27;39.84
61039;BME280;46919;45.816;3.104;2023-06-14T12:16:32;97352.03;;;27.27;40.98
61039;BME280;46919;45.816;3.104;2023-06-14T12:19:00;97350.06;;;27.40;41.08
61039;BME280;46919;45.816;3.104;2023-06-14T12:21:26;97354.56;;;27.57;40.05
61039;BME280;46919;45.816;3.104;2023-06-14T12:23:53;97354.31;;;27.62;42.74
61039;BME280;46919;45.816;3.104;2023-06-14T12:26:19;97353.63;;;27.65;39.95
61039;BME280;46919;45.816;3.104;2023-06-14T12:28:46;97351.13;;;27.89;38.16
61039;BME280;46919;45.816;3.104;2023-06-14T12:31:13;97355.81;;;28.13;39.74
61039;BME280;46919;45.816;3.104;2023-06-14T12:33:39;97356.47;;;28.22;37.52
61039;BME280;46919;45.816;3.104;2023-06-14T12:36:07;97353.03;;;28.41;36.96
61039;BME280;46919;45.816;3.104;2023-06-14T12:38:33;97359.66;;;28.36;36.63
61039;BME280;46919;45.816;3.104;2023-06-14T12:40:58;97359.78;;;28.28;36.30
61039;BME280;46919;45.816;3.104;2023-06-14T12:43:24;97358.38;;;28.34;36.46
61039;BME280;46919;45.816;3.104;2023-06-14T12:45:49;97372.78;;;28.52;37.95
61039;BME280;46919;45.816;3.104;2023-06-14T12:48:15;97359.09;;;28.59;35.03
61039;BME280;46919;45.816;3.104;2023-06-14T12:50:41;97362.22;;;28.73;34.95
61039;BME280;46919;45.816;3.104;2023-06-14T12:53:06;97359.00;;;28.71;33.37
61039;BME280;46919;45.816;3.104;2023-06-14T12:55:32;97366.44;;;28.67;33.70
61039;BME280;46919;45.816;3.104;2023-06-14T12:57:57;97364.66;;;28.91;33.11